createdAt,value
2023-04-29T00:00:46.276Z,69.83
2023-04-29T00:03:13.226Z,69.40
2023-04-29T00:05:40.464Z,69.18
2023-04-29T00:08:07.435Z,69.81
2023-04-29T00:10:34.262Z,69.94
2023-04-29T00:13:01.219Z,70.16
2023-04-29T00:15:28.099Z,69.34
2023-04-29T00:17:55.009Z,69.76
2023-04-29T00:20:21.998Z,69.90
2023-04-29T00:22:48.801Z,69.71
2023-04-29T00:25:15.784Z,70.01
2023-04-29T00:27:42.746Z,70.15
2023-04-29T00:30:09.901Z,69.78
2023-04-29T00:32:36.798Z,70.23
2023-04-29T00:35:03.844Z,69.97
2023-04-29T00:37:30.601Z,68.67
2023-04-29T00:39:57.430Z,69.48
2023-04-29T00:42:25.543Z,70.04
2023-04-29T00:44:52.484Z,70.37
2023-04-29T00:47:19.283Z,70.40
2023-04-29T00:49:46.307Z,70.29
2023-04-29T00:52:14.907Z,70.78
2023-04-29T00:54:42.018Z,70.96
2023-04-29T00:57:09.114Z,71.56
2023-04-29T00:59:36.597Z,71.66
2023-04-29T01:02:04.340Z,71.66
2023-04-29T01:04:31.860Z,71.47
2023-04-29T01:07:05.312Z,70.95
2023-04-29T01:09:44.962Z,70.89
2023-04-29T01:12:40.721Z,70.57
2023-04-29T01:15:33.172Z,70.55
2023-04-29T01:18:12.805Z,70.23
2023-04-29T01:20:41.223Z,70.24
2023-04-29T01:23:08.245Z,70.13
2023-04-29T01:25:35.183Z,70.17
2023-04-29T01:28:13.820Z,70.12
2023-04-29T01:31:00.790Z,69.45
2023-04-29T01:33:41.272Z,69.54
2023-04-29T01:36:22.830Z,69.38
2023-04-29T01:39:03.580Z,68.79
2023-04-29T01:41:44.532Z,68.66
2023-04-29T01:44:24.629Z,69.27
2023-04-29T01:46:52.863Z,68.68
2023-04-29T01:49:25.865Z,68.89
2023-04-29T01:51:52.794Z,68.10
2023-04-29T01:54:19.631Z,68.30
2023-04-29T01:56:46.603Z,68.60
2023-04-29T01:59:13.415Z,68.20
2023-04-29T02:01:40.175Z,68.51
2023-04-29T02:04:07.345Z,69.13
2023-04-29T02:06:34.307Z,69.06
2023-04-29T02:09:01.153Z,69.25
2023-04-29T02:11:28.157Z,70.15
2023-04-29T02:13:54.915Z,70.26
2023-04-29T02:16:21.872Z,70.65
2023-04-29T02:18:48.840Z,70.55
2023-04-29T02:21:15.602Z,71.01
2023-04-29T02:23:42.524Z,71.34
2023-04-29T02:26:09.435Z,72.12
2023-04-29T02:28:36.523Z,71.84
2023-04-29T02:31:03.457Z,72.06
2023-04-29T02:33:30.324Z,72.09
2023-04-29T02:35:57.120Z,72.83
2023-04-29T02:38:24.036Z,72.98
2023-04-29T02:40:51.125Z,72.51
2023-04-29T02:43:18.070Z,73.23
2023-04-29T02:45:44.969Z,73.37
2023-04-29T02:48:12.355Z,74.24
2023-04-29T02:50:39.228Z,74.18
2023-04-29T02:53:06.069Z,74.35
2023-04-29T02:55:33.102Z,74.47
2023-04-29T02:58:00.153Z,74.48
2023-04-29T03:00:26.959Z,75.15
2023-04-29T03:02:54.119Z,74.92
2023-04-29T03:05:21.049Z,75.18
2023-04-29T03:07:47.908Z,75.42
2023-04-29T03:10:14.899Z,75.82
2023-04-29T03:12:41.681Z,75.33
2023-04-29T03:15:08.798Z,75.28
2023-04-29T03:17:35.698Z,75.79
2023-04-29T03:20:02.926Z,75.33
2023-04-29T03:22:29.866Z,75.05
2023-04-29T03:24:56.671Z,75.34
2023-04-29T03:27:23.512Z,75.77
2023-04-29T03:29:50.673Z,75.73
2023-04-29T03:32:17.830Z,75.43
2023-04-29T03:34:44.708Z,75.63
2023-04-29T03:37:11.457Z,75.12
2023-04-29T03:39:38.488Z,74.79
2023-04-29T03:42:05.419Z,74.19
2023-04-29T03:44:32.249Z,74.81
2023-04-29T03:46:59.161Z,74.82
2023-04-29T03:49:26.372Z,75.15
2023-04-29T03:51:53.254Z,74.88
2023-04-29T03:54:20.275Z,75.12
2023-04-29T03:56:47.086Z,74.44
2023-04-29T03:59:13.925Z,74.23
2023-04-29T04:01:41.576Z,74.38
2023-04-29T04:04:08.620Z,73.56
2023-04-29T04:06:35.648Z,73.09
2023-04-29T04:09:02.807Z,72.49
2023-04-29T04:11:29.678Z,71.45
2023-04-29T04:13:56.520Z,71.56
2023-04-29T04:16:23.523Z,70.67
2023-04-29T04:18:50.406Z,71.24
2023-04-29T04:21:17.250Z,70.18
2023-04-29T04:23:44.142Z,69.33
2023-04-29T04:26:10.974Z,67.79
2023-04-29T04:28:37.821Z,66.47
2023-04-29T04:31:04.917Z,65.67
2023-04-29T04:33:31.731Z,66.18
2023-04-29T04:35:58.582Z,66.93
2023-04-29T04:38:25.624Z,64.68
2023-04-29T04:40:52.416Z,64.58
2023-04-29T04:43:19.199Z,65.11
2023-04-29T04:45:46.208Z,65.53
2023-04-29T04:48:13.075Z,66.79
2023-04-29T04:50:39.877Z,65.76
2023-04-29T04:53:06.717Z,66.42
2023-04-29T04:55:33.549Z,67.10
2023-04-29T04:58:00.469Z,64.73
2023-04-29T05:00:27.457Z,64.54
2023-04-29T05:02:54.414Z,65.03
2023-04-29T05:05:21.287Z,65.04
2023-04-29T05:07:48.223Z,64.07
2023-04-29T05:10:15.131Z,65.42
2023-04-29T05:34:05.056Z,64.06
2023-04-29T05:36:32.076Z,61.71
2023-04-29T05:38:58.926Z,59.91
2023-04-29T05:41:26.050Z,61.81
2023-04-29T05:43:52.930Z,63.63
2023-04-29T05:46:19.870Z,64.32
2023-04-29T05:48:46.820Z,64.02
2023-04-29T05:51:13.669Z,63.40
2023-04-29T05:53:40.478Z,64.38
2023-04-29T05:56:07.722Z,66.00
2023-04-29T05:58:37.687Z,65.16
2023-04-29T06:01:04.576Z,65.66
2023-04-29T06:03:31.650Z,63.83
2023-04-29T06:05:59.119Z,61.90
2023-04-29T06:08:26.576Z,63.31
2023-04-29T06:10:53.485Z,60.07
2023-04-29T06:13:20.420Z,60.37
2023-04-29T06:15:47.434Z,61.16
2023-04-29T06:18:14.389Z,59.77
2023-04-29T06:20:41.266Z,58.25
2023-04-29T06:23:08.464Z,56.08
2023-04-29T06:25:35.444Z,53.78
2023-04-29T06:28:02.329Z,54.73
2023-04-29T06:30:29.467Z,54.95
2023-04-29T06:32:56.386Z,54.49
2023-04-29T06:35:23.178Z,52.45
2023-04-29T06:37:50.033Z,49.32
2023-04-29T06:40:17.259Z,51.83
2023-04-29T06:42:44.119Z,53.40
2023-04-29T06:45:11.172Z,52.72
2023-04-29T06:47:38.268Z,52.77
2023-04-29T06:50:05.552Z,52.29
2023-04-29T06:52:32.369Z,50.45
2023-04-29T06:54:59.256Z,50.66
2023-04-29T06:57:26.342Z,50.43
2023-04-29T06:59:53.393Z,52.08
2023-04-29T07:02:20.691Z,51.03
2023-04-29T07:04:47.582Z,48.75
2023-04-29T07:07:14.487Z,49.37
2023-04-29T07:09:41.410Z,49.94
2023-04-29T07:12:08.358Z,52.71
2023-04-29T07:14:35.217Z,52.55
2023-04-29T07:17:02.096Z,51.69
2023-04-29T07:19:28.886Z,51.73
2023-04-29T07:21:55.720Z,52.59
2023-04-29T07:24:22.577Z,52.66
2023-04-29T07:26:49.448Z,55.06
2023-04-29T07:29:16.291Z,55.03
2023-04-29T07:31:44.977Z,54.21
2023-04-29T07:34:11.877Z,53.80
2023-04-29T07:36:39.470Z,53.36
2023-04-29T07:39:06.407Z,54.50
2023-04-29T07:41:33.166Z,54.80
2023-04-29T07:43:59.998Z,53.73
2023-04-29T07:46:26.884Z,53.61
2023-04-29T07:48:53.790Z,52.43
2023-04-29T07:51:20.553Z,51.35
2023-04-29T07:53:47.430Z,54.47
2023-04-29T07:56:14.226Z,54.09
2023-04-29T07:58:40.970Z,52.26
2023-04-29T08:01:11.580Z,51.83
2023-04-29T08:03:41.063Z,52.97
2023-04-29T08:06:09.124Z,50.94
2023-04-29T08:08:36.220Z,53.10
2023-04-29T08:11:03.031Z,53.23
2023-04-29T08:13:29.820Z,53.33
2023-04-29T08:15:56.913Z,52.66
2023-04-29T08:18:23.887Z,53.87
2023-04-29T08:20:50.736Z,49.90
2023-04-29T08:23:17.609Z,49.94
2023-04-29T08:25:44.669Z,51.97
2023-04-29T08:28:11.584Z,49.72
2023-04-29T08:30:41.599Z,50.12
2023-04-29T08:33:09.228Z,48.76
2023-04-29T08:35:36.252Z,48.93
2023-04-29T08:38:03.861Z,48.66
2023-04-29T08:40:30.830Z,45.75
2023-04-29T08:42:59.076Z,47.34
2023-04-29T08:45:28.965Z,48.56
2023-04-29T08:47:57.377Z,47.52
2023-04-29T08:50:24.604Z,49.07
2023-04-29T08:52:51.497Z,49.84
2023-04-29T08:55:18.314Z,48.23
2023-04-29T08:57:49.706Z,48.49
2023-04-29T09:00:18.052Z,48.48
2023-04-29T09:02:49.864Z,48.26
2023-04-29T09:05:17.090Z,47.01
2023-04-29T09:07:44.534Z,47.74
2023-04-29T09:10:11.987Z,47.28
2023-04-29T09:12:39.021Z,47.67
2023-04-29T09:15:06.384Z,47.62
2023-04-29T09:17:44.676Z,47.84
2023-04-29T09:20:20.672Z,48.32
2023-04-29T09:22:51.739Z,47.45
2023-04-29T09:25:19.475Z,47.49
2023-04-29T09:27:46.707Z,46.35
2023-04-29T09:30:13.847Z,48.80
2023-04-29T09:32:40.660Z,49.00
2023-04-29T09:35:29.656Z,48.34
2023-04-29T09:38:14.149Z,47.76
2023-04-29T09:40:56.861Z,47.42
2023-04-29T09:43:25.476Z,48.93
2023-04-29T09:45:52.381Z,49.94
2023-04-29T09:48:19.265Z,49.99
2023-04-29T09:51:00.582Z,49.34
2023-04-29T09:53:31.747Z,49.88
2023-04-29T09:56:01.193Z,50.32
2023-04-29T09:58:35.260Z,49.90
2023-04-29T10:01:03.402Z,48.86
2023-04-29T10:03:38.142Z,49.70
2023-04-29T10:06:07.085Z,49.19
2023-04-29T10:08:35.194Z,49.21
2023-04-29T10:11:04.053Z,48.51
2023-04-29T10:13:31.566Z,47.73
2023-04-29T10:16:08.112Z,48.11
2023-04-29T10:18:44.998Z,47.09
2023-04-29T10:21:13.899Z,47.47
2023-04-29T10:23:43.295Z,47.61
2023-04-29T10:26:14.040Z,47.19
2023-04-29T10:28:42.661Z,46.73
2023-04-29T10:31:10.171Z,46.66
2023-04-29T10:33:40.353Z,47.18
2023-04-29T10:36:08.140Z,45.22
2023-04-29T10:38:40.578Z,46.25
2023-04-29T10:41:17.153Z,46.31
2023-04-29T10:43:44.077Z,46.68
2023-04-29T10:46:16.675Z,46.97
2023-04-29T10:48:47.847Z,46.18
2023-04-29T10:51:29.763Z,45.10
2023-04-29T10:54:21.080Z,46.39
2023-04-29T10:56:53.058Z,46.96
2023-04-29T10:59:43.152Z,48.08
2023-04-29T11:02:12.887Z,45.51
2023-04-29T11:05:08.697Z,45.82
2023-04-29T11:07:35.493Z,45.59
2023-04-29T11:10:03.061Z,44.59
2023-04-29T11:12:30.045Z,44.14
2023-04-29T11:14:58.792Z,43.05
2023-04-29T11:17:27.144Z,42.31
2023-04-29T11:19:55.500Z,41.97
2023-04-29T11:22:29.633Z,41.68
2023-04-29T11:25:07.457Z,42.47
2023-04-29T11:27:39.523Z,43.13
2023-04-29T11:30:07.813Z,42.74
2023-04-29T11:32:37.485Z,43.14
2023-04-29T11:35:13.076Z,43.25
2023-04-29T11:37:40.940Z,42.95
2023-04-29T11:40:08.663Z,43.52
2023-04-29T11:42:38.455Z,42.74
2023-04-29T11:45:05.686Z,43.31
2023-04-29T11:47:32.491Z,43.22
2023-04-29T11:50:07.596Z,42.56
2023-04-29T11:52:36.523Z,41.94
2023-04-29T11:55:04.645Z,41.53
2023-04-29T11:57:31.816Z,40.20
2023-04-29T11:59:59.289Z,40.54
2023-04-29T12:02:33.141Z,40.29
2023-04-29T12:05:01.771Z,40.39
2023-04-29T12:07:29.191Z,39.70
2023-04-29T12:09:56.101Z,41.00
2023-04-29T12:12:23.106Z,41.44
2023-04-29T12:14:50.589Z,41.85
2023-04-29T12:17:17.865Z,41.73
2023-04-29T12:19:44.898Z,43.15
2023-04-29T12:22:11.806Z,42.79
2023-04-29T12:24:40.177Z,42.45
2023-04-29T12:27:10.705Z,41.98
2023-04-29T12:29:38.423Z,42.45
2023-04-29T12:32:05.436Z,43.00
2023-04-29T12:34:33.383Z,43.47
2023-04-29T12:37:02.301Z,42.76
2023-04-29T12:39:31.276Z,42.67
2023-04-29T12:41:59.027Z,41.70
2023-04-29T12:44:26.688Z,41.38
2023-04-29T12:46:54.628Z,40.81
2023-04-29T12:49:25.216Z,41.98
2023-04-29T12:51:52.095Z,42.34
2023-04-29T12:54:18.980Z,42.10
2023-04-29T12:56:45.909Z,42.51
2023-04-29T12:59:12.671Z,44.33
2023-04-29T13:01:39.610Z,43.74
2023-04-29T13:04:06.987Z,43.76
2023-04-29T13:06:33.979Z,44.45
2023-04-29T13:09:00.997Z,44.79
2023-04-29T13:11:32.519Z,44.56
2023-04-29T13:14:01.516Z,44.89
2023-04-29T13:16:28.414Z,44.45
2023-04-29T13:19:12.372Z,44.09
2023-04-29T13:21:42.066Z,44.51
2023-04-29T13:24:08.946Z,44.94
2023-04-29T13:26:35.847Z,45.95
2023-04-29T13:29:02.720Z,46.98
2023-04-29T13:31:29.716Z,47.64
2023-04-29T13:33:56.631Z,47.76
2023-04-29T13:36:26.492Z,47.80
2023-04-29T13:38:55.518Z,47.42
2023-04-29T13:41:22.776Z,46.23
2023-04-29T13:43:51.053Z,47.44
2023-04-29T13:46:20.588Z,47.57
2023-04-29T13:51:49.070Z,47.27
2023-04-29T14:04:09.626Z,48.51
2023-04-29T14:06:36.669Z,50.94
2023-04-29T14:09:04.098Z,51.33
2023-04-29T14:11:31.143Z,50.84
2023-04-29T14:13:58.117Z,50.01
2023-04-29T14:16:25.332Z,49.98
2023-04-29T14:18:52.416Z,51.49
2023-04-29T14:21:19.270Z,51.04
2023-04-29T14:23:46.075Z,51.03
2023-04-29T14:26:27.285Z,51.13
2023-04-29T14:28:56.469Z,51.44
2023-04-29T14:31:34.196Z,53.18
2023-04-29T14:34:01.090Z,53.26
2023-04-29T14:36:27.945Z,52.77
2023-04-29T14:38:54.949Z,53.21
2023-04-29T14:41:22.109Z,54.79
2023-04-29T14:43:49.111Z,54.71
2023-04-29T14:46:16.373Z,55.76
2023-04-29T14:48:43.279Z,54.76
2023-04-29T14:51:10.263Z,55.38
2023-04-29T14:53:37.196Z,56.36
2023-04-29T14:56:04.136Z,56.64
2023-04-29T14:58:31.020Z,57.70
2023-04-29T15:00:57.959Z,57.75
2023-04-29T15:03:25.063Z,57.38
2023-04-29T15:05:52.360Z,58.06
2023-04-29T15:08:19.747Z,57.90
2023-04-29T15:10:46.969Z,58.09
2023-04-29T15:13:13.906Z,57.81
2023-04-29T15:15:40.844Z,57.12
2023-04-29T15:18:07.935Z,58.00
2023-04-29T15:20:38.291Z,58.44
2023-04-29T15:23:06.147Z,59.17
2023-04-29T15:25:33.216Z,58.89
2023-04-29T15:28:00.659Z,59.19
2023-04-29T15:30:28.042Z,59.46
2023-04-29T15:32:55.586Z,59.22
2023-04-29T15:35:22.555Z,59.27
2023-04-29T15:37:49.754Z,58.90
2023-04-29T15:40:16.649Z,59.86
2023-04-29T15:42:43.495Z,59.87
2023-04-29T15:45:11.056Z,60.38
2023-04-29T15:47:38.275Z,60.63
2023-04-29T15:50:05.659Z,60.83
2023-04-29T15:52:32.688Z,61.57
2023-04-29T15:54:59.650Z,62.35
2023-04-29T15:57:26.700Z,61.75
2023-04-29T15:59:53.689Z,61.64
2023-04-29T16:02:20.704Z,61.91
2023-04-29T16:04:47.588Z,61.07
2023-04-29T16:07:17.750Z,61.07
2023-04-29T16:09:44.586Z,61.34
2023-04-29T16:12:11.424Z,61.17
2023-04-29T16:14:41.560Z,61.79
2023-04-29T16:17:08.595Z,61.70
2023-04-29T16:19:37.044Z,61.57
2023-04-29T16:22:04.761Z,61.16
2023-04-29T16:24:33.569Z,61.57
2023-04-29T16:27:00.439Z,61.66
2023-04-29T16:29:30.085Z,61.35
2023-04-29T16:31:57.124Z,61.35
2023-04-29T16:34:23.975Z,60.85
2023-04-29T16:36:54.285Z,60.80
2023-04-29T16:39:21.080Z,62.02
2023-04-29T16:41:47.988Z,61.95
2023-04-29T16:44:15.069Z,61.92
2023-04-29T16:46:45.082Z,62.64
2023-04-29T16:49:12.499Z,61.55
2023-04-29T16:51:41.780Z,61.27
2023-04-29T16:54:08.641Z,61.43
2023-04-29T16:56:35.511Z,61.59
2023-04-29T16:59:02.443Z,61.65
2023-04-29T17:01:29.350Z,61.93
2023-04-29T17:03:56.337Z,61.83
2023-04-29T17:06:23.797Z,62.08
2023-04-29T17:08:51.572Z,62.19
2023-04-29T17:11:18.824Z,62.93
2023-04-29T17:13:45.706Z,62.98
2023-04-29T17:16:12.544Z,63.69
2023-04-29T17:18:39.432Z,63.52
2023-04-29T17:21:07.940Z,64.46
2023-04-29T17:23:35.277Z,63.82
2023-04-29T17:26:02.446Z,64.39
2023-04-29T17:28:29.293Z,64.42
2023-04-29T17:30:58.971Z,64.50
2023-04-29T17:33:26.652Z,65.08
2023-04-29T17:35:53.561Z,64.44
2023-04-29T17:38:23.071Z,63.95
2023-04-29T17:40:52.930Z,63.48
2023-04-29T17:43:22.798Z,63.92
2023-04-29T17:45:49.711Z,64.02
2023-04-29T17:48:16.579Z,63.32
2023-04-29T17:50:43.388Z,62.95
2023-04-29T17:53:10.267Z,62.45
2023-04-29T17:55:41.145Z,62.28
2023-04-29T17:58:11.074Z,62.42
2023-04-29T18:00:41.264Z,62.42
2023-04-29T18:03:08.251Z,62.65
2023-04-29T18:05:35.174Z,62.91
2023-04-29T18:08:02.030Z,62.97
2023-04-29T18:10:28.852Z,62.95
2023-04-29T18:12:55.668Z,63.54
2023-04-29T18:15:22.551Z,64.09
2023-04-29T18:17:50.441Z,63.44
2023-04-29T18:20:17.293Z,63.83
2023-04-29T18:22:44.157Z,63.53
2023-04-29T18:25:11.208Z,65.01
2023-04-29T18:27:38.081Z,64.51
2023-04-29T18:30:05.531Z,64.00
2023-04-29T18:32:32.392Z,64.38
2023-04-29T18:34:59.195Z,64.45
2023-04-29T18:37:25.971Z,63.92
2023-04-29T18:39:53.090Z,63.54
2023-04-29T18:42:25.574Z,63.83
2023-04-29T18:44:55.098Z,63.36
2023-04-29T18:47:22.221Z,63.64
2023-04-29T18:49:49.104Z,63.43
2023-04-29T18:52:16.094Z,62.78
2023-04-29T18:54:42.954Z,63.10
2023-04-29T18:57:09.780Z,62.65
2023-04-29T18:59:36.733Z,62.88
2023-04-29T19:02:03.910Z,62.91
2023-04-29T19:04:30.832Z,63.30
2023-04-29T19:06:58.302Z,63.31
2023-04-29T19:09:25.268Z,63.31
2023-04-29T19:11:52.089Z,63.79
2023-04-29T19:14:18.941Z,63.26
2023-04-29T19:16:45.868Z,63.30
2023-04-29T19:19:20.322Z,63.82
2023-04-29T19:21:47.438Z,64.57
2023-04-29T19:24:14.312Z,64.23
2023-04-29T19:26:41.299Z,64.91
2023-04-29T19:29:08.342Z,64.10
2023-04-29T19:31:35.351Z,64.92
2023-04-29T19:34:02.370Z,63.83
2023-04-29T19:36:29.317Z,63.40
2023-04-29T19:38:56.245Z,63.72
2023-04-29T19:41:23.277Z,63.57
2023-04-29T19:43:50.151Z,63.09
2023-04-29T19:46:16.961Z,63.61
2023-04-29T19:48:45.651Z,62.92
2023-04-29T19:51:12.459Z,63.44
2023-04-29T19:53:39.365Z,63.61
2023-04-29T19:56:06.275Z,63.54
2023-04-29T19:58:33.156Z,63.19
2023-04-29T20:01:00.038Z,64.61
2023-04-29T20:03:27.076Z,63.17
2023-04-29T20:05:54.159Z,63.89
2023-04-29T20:08:21.191Z,63.80
2023-04-29T20:10:48.309Z,63.42
2023-04-29T20:13:15.177Z,64.05
2023-04-29T20:15:42.391Z,63.25
2023-04-29T20:18:09.342Z,62.81
2023-04-29T20:20:36.205Z,63.02
2023-04-29T20:23:03.652Z,62.87
2023-04-29T20:25:31.153Z,62.58
2023-04-29T20:27:57.945Z,62.29
2023-04-29T20:30:24.835Z,62.42
2023-04-29T20:32:52.026Z,61.70
2023-04-29T20:35:22.035Z,61.63
2023-04-29T20:37:48.993Z,61.00
2023-04-29T20:40:15.865Z,61.29
2023-04-29T20:42:42.775Z,61.96
2023-04-29T20:45:10.298Z,64.50
2023-04-29T20:47:37.651Z,65.59
2023-04-29T20:50:04.891Z,65.42
2023-04-29T20:52:31.818Z,66.05
2023-04-29T20:54:58.692Z,66.00
2023-04-29T20:57:25.497Z,66.06
2023-04-29T20:59:52.575Z,65.52
2023-04-29T21:02:20.176Z,67.30
2023-04-29T21:04:47.160Z,69.02
2023-04-29T21:07:14.107Z,70.58
2023-04-29T21:09:41.036Z,72.07
2023-04-29T21:12:08.093Z,73.61
2023-04-29T21:14:35.704Z,73.64
2023-04-29T21:17:02.625Z,74.44
2023-04-29T21:19:29.527Z,74.44
2023-04-29T21:21:56.317Z,75.55
2023-04-29T21:24:23.263Z,75.62
2023-04-29T21:26:59.100Z,75.90
2023-04-29T21:29:25.973Z,76.22
2023-04-29T21:31:52.907Z,77.65
2023-04-29T21:34:19.721Z,77.83
2023-04-29T21:36:46.826Z,77.78
2023-04-29T21:39:13.648Z,78.06
2023-04-29T21:41:43.169Z,77.69
2023-04-29T21:44:12.428Z,76.52
2023-04-29T21:46:39.738Z,76.48
2023-04-29T21:49:06.692Z,77.02
2023-04-29T21:51:34.489Z,76.84
2023-04-29T21:54:01.469Z,76.41
2023-04-29T21:56:28.442Z,77.10
2023-04-29T21:58:55.326Z,77.94
2023-04-29T22:01:22.373Z,79.04
2023-04-29T22:03:49.364Z,79.24
2023-04-29T22:06:16.378Z,79.30
2023-04-29T22:08:43.202Z,80.01
2023-04-29T22:11:09.976Z,80.53
2023-04-29T22:13:36.887Z,79.92
2023-04-29T22:16:03.885Z,79.67
2023-04-29T22:18:30.810Z,79.83
2023-04-29T22:20:57.709Z,80.13
2023-04-29T22:23:24.582Z,79.80
2023-04-29T22:25:51.477Z,80.11
2023-04-29T22:28:18.437Z,79.84
2023-04-29T22:30:45.243Z,79.20
2023-04-29T22:33:13.086Z,79.75
2023-04-29T22:35:40.002Z,79.71
2023-04-29T22:38:06.850Z,79.94
2023-04-29T22:40:33.641Z,79.38
2023-04-29T22:43:00.684Z,79.31
2023-04-29T22:45:27.490Z,79.24
2023-04-29T22:47:54.349Z,79.41
2023-04-29T22:50:21.167Z,78.51
2023-04-29T22:52:48.105Z,77.60
2023-04-29T22:55:15.003Z,77.15
2023-04-29T22:57:41.902Z,77.12
2023-04-29T23:00:09.350Z,75.98
2023-04-29T23:02:36.214Z,76.37
2023-04-29T23:05:03.286Z,75.06
2023-04-29T23:07:30.287Z,76.12
2023-04-29T23:09:57.228Z,74.74
2023-04-29T23:12:24.186Z,74.23
2023-04-29T23:14:50.985Z,73.01
2023-04-29T23:17:17.815Z,72.22
2023-04-29T23:19:44.749Z,71.85
2023-04-29T23:22:11.570Z,71.86
2023-04-29T23:24:38.359Z,71.20
2023-04-29T23:27:05.271Z,71.10
2023-04-29T23:29:33.365Z,69.91
2023-04-29T23:32:00.499Z,69.58
2023-04-29T23:34:27.480Z,69.57
2023-04-29T23:36:54.401Z,69.97
2023-04-29T23:39:21.173Z,70.07
2023-04-29T23:41:48.099Z,69.95
2023-04-29T23:44:14.920Z,70.25
2023-04-29T23:46:41.830Z,70.49
2023-04-29T23:49:08.928Z,73.37
2023-04-29T23:51:35.749Z,74.70
2023-04-29T23:54:02.593Z,76.65
2023-04-29T23:56:29.479Z,77.87
2023-04-29T23:58:56.334Z,79.21
